createdAt,value
2023-06-09T00:10:00.783Z,71.24
2023-06-09T00:25:04.434Z,70.55
2023-06-09T00:40:09.177Z,71.35
2023-06-09T00:55:13.531Z,71.79
2023-06-09T01:10:24.065Z,72.22
2023-06-09T01:25:31.536Z,72.21
2023-06-09T01:40:35.455Z,71.51
2023-06-09T01:55:40.965Z,71.98
2023-06-09T02:10:44.159Z,72.61
2023-06-09T02:25:47.264Z,73.27
2023-06-09T02:40:50.529Z,72.93
2023-06-09T02:55:54.254Z,73.72
2023-06-09T03:11:01.749Z,73.29
2023-06-09T03:26:05.689Z,73.73
2023-06-09T03:41:09.767Z,74.64
2023-06-09T03:56:14.494Z,75.09
2023-06-09T04:11:17.814Z,73.91
2023-06-09T04:26:20.930Z,73.07
2023-06-09T04:41:24.100Z,68.99
2023-06-09T04:56:27.419Z,64.99
2023-06-09T05:11:31.962Z,60.03
2023-06-09T05:26:35.494Z,55.97
2023-06-09T05:41:38.695Z,53.57
2023-06-09T05:56:43.072Z,50.00
2023-06-09T06:11:46.521Z,47.70
2023-06-09T06:26:49.529Z,45.84
2023-06-09T06:41:53.007Z,44.53
2023-06-09T06:56:56.058Z,42.27
2023-06-09T07:11:59.041Z,40.87
2023-06-09T07:27:02.170Z,40.18
2023-06-09T07:42:05.932Z,38.70
2023-06-09T07:57:08.950Z,37.43
2023-06-09T08:12:12.384Z,36.30
2023-06-09T08:27:16.570Z,36.02
2023-06-09T08:42:21.086Z,34.57
2023-06-09T08:57:24.254Z,34.17
2023-06-09T09:12:45.605Z,34.10
2023-06-09T09:27:59.110Z,31.59
2023-06-09T09:43:02.872Z,32.56
2023-06-09T09:58:07.183Z,32.07
2023-06-09T10:13:10.348Z,30.47
2023-06-09T10:28:13.727Z,27.88
2023-06-09T10:43:26.909Z,25.44
2023-06-09T10:58:36.992Z,26.28
2023-06-09T11:13:41.171Z,26.25
2023-06-09T11:28:45.597Z,29.69
2023-06-09T11:43:52.929Z,31.21
2023-06-09T11:58:55.998Z,30.56
2023-06-09T12:13:59.090Z,29.55
2023-06-09T12:29:02.311Z,27.44
2023-06-09T12:44:05.449Z,28.42
2023-06-09T12:59:09.816Z,26.99
2023-06-09T13:14:12.916Z,27.70
2023-06-09T13:29:15.948Z,27.88
2023-06-09T13:44:19.294Z,26.53
2023-06-09T13:59:22.469Z,24.88
2023-06-09T14:14:25.754Z,25.07
2023-06-09T14:29:29.289Z,23.43
2023-06-09T14:44:33.586Z,23.21
2023-06-09T14:59:36.668Z,24.08
2023-06-09T15:14:39.642Z,24.77
2023-06-09T15:29:42.627Z,26.83
2023-06-09T15:44:46.103Z,29.43
2023-06-09T15:59:49.172Z,32.01
2023-06-09T16:14:52.338Z,31.45
2023-06-09T16:29:55.370Z,33.37
2023-06-09T16:44:58.427Z,34.01
2023-06-09T17:00:01.656Z,35.44
2023-06-09T17:15:05.971Z,30.33
2023-06-09T17:30:14.305Z,29.64
2023-06-09T17:45:18.445Z,28.99
2023-06-09T18:00:22.406Z,33.43
2023-06-09T18:15:26.788Z,35.46
2023-06-09T18:30:29.973Z,36.19
2023-06-09T18:45:33.134Z,36.59
2023-06-09T19:00:36.265Z,38.04
2023-06-09T19:15:39.402Z,39.25
2023-06-09T19:30:42.726Z,40.23
2023-06-09T19:45:48.600Z,42.39
2023-06-09T20:00:54.368Z,43.53
2023-06-09T20:15:57.525Z,45.37
2023-06-09T20:31:00.548Z,46.67
2023-06-09T20:46:03.992Z,46.96
2023-06-09T21:01:07.289Z,48.11
2023-06-09T21:16:10.357Z,48.96
2023-06-09T21:31:13.551Z,50.06
2023-06-09T21:46:17.036Z,50.39
2023-06-09T22:01:20.107Z,50.70
2023-06-09T22:16:23.368Z,52.87
2023-06-09T22:31:26.523Z,52.63
2023-06-09T22:46:31.840Z,53.95
2023-06-09T23:01:35.007Z,53.98
2023-06-09T23:16:38.108Z,54.73
2023-06-09T23:31:41.190Z,55.33
2023-06-09T23:46:44.372Z,56.18
